createdAt,value
2023-01-17T00:02:17.021Z,5.40
2023-01-17T00:05:04.331Z,8.90
2023-01-17T00:07:51.469Z,6.50
2023-01-17T00:10:25.494Z,6.80
2023-01-17T00:12:59.464Z,6.20
2023-01-17T00:15:30.776Z,6.80
2023-01-17T00:17:59.765Z,4.50
2023-01-17T00:20:49.388Z,5.20
2023-01-17T00:24:01.681Z,5.30
2023-01-17T00:26:31.939Z,4.30
2023-01-17T00:29:00.402Z,9.80
2023-01-17T00:31:28.562Z,9.40
2023-01-17T00:33:56.787Z,12.20
2023-01-17T00:36:24.879Z,9.20
2023-01-17T00:38:53.366Z,8.50
2023-01-17T00:41:21.395Z,6.90
2023-01-17T00:44:07.978Z,4.10
2023-01-17T00:46:55.029Z,7.70
2023-01-17T00:49:41.875Z,5.50
2023-01-17T00:52:28.507Z,6.10
2023-01-17T00:55:15.440Z,3.90
2023-01-17T00:58:02.478Z,2.50
2023-01-17T01:00:49.702Z,6.00
2023-01-17T01:03:36.639Z,6.10
2023-01-17T01:06:24.960Z,3.30
2023-01-17T01:09:11.681Z,5.90
2023-01-17T01:11:58.548Z,7.40
2023-01-17T01:14:46.323Z,6.90
2023-01-17T01:17:32.932Z,8.60
2023-01-17T01:20:19.811Z,5.70
2023-01-17T01:23:07.216Z,4.20
2023-01-17T01:25:55.203Z,5.00
2023-01-17T01:28:42.384Z,6.50
2023-01-17T01:31:29.204Z,5.70
2023-01-17T01:33:57.319Z,6.30
2023-01-17T01:36:25.723Z,2.70
2023-01-17T01:38:54.685Z,6.20
2023-01-17T01:41:23.206Z,4.70
2023-01-17T01:43:53.838Z,4.80
2023-01-17T01:46:24.589Z,6.30
2023-01-17T01:49:06.776Z,7.00
2023-01-17T01:51:51.140Z,5.30
2023-01-17T01:54:28.324Z,4.40
2023-01-17T01:57:01.724Z,9.40
2023-01-17T01:59:32.380Z,9.50
2023-01-17T02:02:01.708Z,7.50
2023-01-17T02:04:29.927Z,5.00
2023-01-17T02:07:10.503Z,4.10
2023-01-17T02:09:38.790Z,3.80
2023-01-17T02:12:08.257Z,6.60
2023-01-17T02:14:36.396Z,7.90
2023-01-17T02:17:32.516Z,10.40
2023-01-17T02:20:06.596Z,4.80
2023-01-17T02:23:11.366Z,5.70
2023-01-17T02:26:17.284Z,8.00
2023-01-17T02:29:07.513Z,6.40
2023-01-17T02:31:51.777Z,11.60
2023-01-17T02:34:22.809Z,7.50
2023-01-17T02:37:01.721Z,4.40
2023-01-17T02:39:43.979Z,14.80
2023-01-17T02:42:18.277Z,11.60
2023-01-17T02:44:46.631Z,9.50
2023-01-17T02:47:29.535Z,8.30
2023-01-17T02:50:03.642Z,7.60
2023-01-17T02:52:37.940Z,19.20
2023-01-17T02:55:15.121Z,37.20
2023-01-17T02:58:31.316Z,21.00
2023-01-17T03:01:48.785Z,9.40
2023-01-17T03:04:48.293Z,10.80
2023-01-17T03:07:22.788Z,12.50
2023-01-17T03:09:56.497Z,13.20
2023-01-17T03:12:28.289Z,11.90
2023-01-17T03:14:57.208Z,15.50
2023-01-17T03:17:30.822Z,12.20
2023-01-17T03:19:59.632Z,8.60
2023-01-17T03:22:27.794Z,4.90
2023-01-17T03:24:55.889Z,4.50
2023-01-17T03:27:24.105Z,6.10
2023-01-17T03:29:52.317Z,8.30
2023-01-17T03:32:20.552Z,5.00
2023-01-17T03:34:48.906Z,7.50
2023-01-17T03:37:17.060Z,7.10
2023-01-17T03:39:45.360Z,6.00
2023-01-17T03:42:13.619Z,9.40
2023-01-17T03:44:41.773Z,5.10
2023-01-17T03:47:12.428Z,7.30
2023-01-17T03:49:40.921Z,9.10
2023-01-17T03:52:09.146Z,7.30
2023-01-17T03:54:37.529Z,7.00
2023-01-17T03:57:05.792Z,5.70
2023-01-17T03:59:34.258Z,5.40
2023-01-17T04:02:02.809Z,5.80
2023-01-17T04:04:31.127Z,9.40
2023-01-17T04:06:59.368Z,7.30
2023-01-17T04:09:27.516Z,7.10
2023-01-17T04:11:55.851Z,6.80
2023-01-17T04:14:23.894Z,6.30
2023-01-17T04:16:52.426Z,4.70
2023-01-17T04:19:20.933Z,3.70
2023-01-17T04:21:49.425Z,6.30
2023-01-17T04:24:18.111Z,4.80
2023-01-17T04:26:47.504Z,6.30
2023-01-17T04:29:15.925Z,6.90
2023-01-17T04:31:44.285Z,4.40
2023-01-17T04:34:12.434Z,4.10
2023-01-17T04:36:41.175Z,2.80
2023-01-17T04:39:09.580Z,3.50
2023-01-17T04:41:37.977Z,7.40
2023-01-17T04:44:06.335Z,16.40
2023-01-17T04:46:34.557Z,7.60
2023-01-17T04:49:03.300Z,7.30
2023-01-17T04:51:31.617Z,5.90
2023-01-17T04:53:59.741Z,4.90
2023-01-17T04:56:28.091Z,3.80
2023-01-17T04:58:59.501Z,5.40
2023-01-17T05:01:27.763Z,3.20
2023-01-17T05:03:55.970Z,4.90
2023-01-17T05:06:24.284Z,3.70
2023-01-17T05:08:52.989Z,3.90
2023-01-17T05:11:21.218Z,3.40
2023-01-17T05:13:49.480Z,4.60
2023-01-17T05:16:19.658Z,3.80
2023-01-17T05:18:52.951Z,2.50
2023-01-17T05:21:22.237Z,3.20
2023-01-17T05:23:50.897Z,1.30
2023-01-17T05:26:19.180Z,3.10
2023-01-17T05:28:47.346Z,6.30
2023-01-17T05:31:16.015Z,6.00
2023-01-17T05:33:44.186Z,5.40
2023-01-17T05:36:12.386Z,3.10
2023-01-17T05:38:40.497Z,4.70
2023-01-17T05:41:11.642Z,4.30
2023-01-17T05:43:39.781Z,3.50
2023-01-17T05:46:10.163Z,3.50
2023-01-17T05:48:38.298Z,5.10
2023-01-17T05:51:06.669Z,4.70
2023-01-17T05:53:34.999Z,5.10
2023-01-17T05:56:03.165Z,4.90
2023-01-17T05:58:34.051Z,4.00
2023-01-17T06:01:02.192Z,5.00
2023-01-17T06:03:30.366Z,3.50
2023-01-17T06:05:58.895Z,4.10
2023-01-17T06:08:27.039Z,3.60
2023-01-17T06:10:55.395Z,2.40
2023-01-17T06:13:23.736Z,3.80
2023-01-17T06:15:51.979Z,2.70
2023-01-17T06:18:20.121Z,4.40
2023-01-17T06:20:53.337Z,4.30
2023-01-17T06:23:23.260Z,4.40
2023-01-17T06:25:51.947Z,4.50
2023-01-17T06:28:22.355Z,4.10
2023-01-17T06:30:50.576Z,4.90
2023-01-17T06:33:18.756Z,5.50
2023-01-17T06:35:51.699Z,5.40
2023-01-17T06:38:20.194Z,5.20
2023-01-17T06:40:48.736Z,5.90
2023-01-17T06:43:17.318Z,5.10
2023-01-17T06:45:45.596Z,5.30
2023-01-17T06:48:14.099Z,5.90
2023-01-17T06:50:42.260Z,8.90
2023-01-17T06:53:10.642Z,9.40
2023-01-17T06:55:40.546Z,7.70
2023-01-17T06:58:09.563Z,5.80
2023-01-17T07:00:40.503Z,5.90
2023-01-17T07:03:27.467Z,8.20
2023-01-17T07:05:55.783Z,5.60
2023-01-17T07:08:24.050Z,10.00
2023-01-17T07:11:01.578Z,6.20
2023-01-17T07:13:30.941Z,9.70
2023-01-17T07:16:01.374Z,8.30
2023-01-17T07:18:30.622Z,12.60
2023-01-17T07:20:59.024Z,8.00
2023-01-17T07:23:27.341Z,5.00
2023-01-17T07:26:00.627Z,5.50
2023-01-17T07:28:29.318Z,7.80
2023-01-17T07:30:57.604Z,5.30
2023-01-17T07:33:26.020Z,8.60
2023-01-17T07:35:54.395Z,8.00
2023-01-17T07:38:22.713Z,6.90
2023-01-17T07:40:50.902Z,9.20
2023-01-17T07:43:19.179Z,7.30
2023-01-17T07:45:53.660Z,10.20
2023-01-17T07:48:24.250Z,9.10
2023-01-17T07:50:53.494Z,7.10
2023-01-17T07:53:23.945Z,7.20
2023-01-17T07:55:52.612Z,4.60
2023-01-17T07:58:21.773Z,3.70
2023-01-17T08:00:50.130Z,4.00
2023-01-17T08:03:18.700Z,9.10
2023-01-17T08:05:55.918Z,7.20
2023-01-17T08:08:24.417Z,15.70
2023-01-17T08:10:55.147Z,11.90
2023-01-17T08:13:25.694Z,8.60
2023-01-17T08:15:54.756Z,9.30
2023-01-17T08:18:23.041Z,7.40
2023-01-17T08:20:51.312Z,7.30
2023-01-17T08:23:19.788Z,5.40
2023-01-17T08:25:48.869Z,7.70
2023-01-17T08:28:17.178Z,5.60
2023-01-17T08:30:45.921Z,6.30
2023-01-17T08:33:14.129Z,5.70
2023-01-17T08:35:54.528Z,3.40
2023-01-17T08:38:24.011Z,2.30
2023-01-17T08:40:52.340Z,5.20
2023-01-17T08:43:20.671Z,6.00
2023-01-17T08:45:50.363Z,2.20
2023-01-17T08:48:18.617Z,1.70
2023-01-17T08:50:46.939Z,1.40
2023-01-17T08:53:15.436Z,1.50
2023-01-17T08:55:44.104Z,1.90
2023-01-17T08:58:12.436Z,1.60
2023-01-17T09:00:40.617Z,1.80
2023-01-17T09:03:14.401Z,1.90
2023-01-17T09:05:42.687Z,2.10
2023-01-17T09:08:13.364Z,1.20
2023-01-17T09:10:41.590Z,3.70
2023-01-17T09:13:09.918Z,2.00
2023-01-17T09:15:38.084Z,2.10
2023-01-17T09:18:06.319Z,2.30
2023-01-17T09:20:34.428Z,1.70
2023-01-17T09:23:03.755Z,4.20
2023-01-17T09:25:32.068Z,2.70
2023-01-17T09:28:00.520Z,2.30
2023-01-17T09:30:29.318Z,3.60
2023-01-17T09:32:57.691Z,2.00
2023-01-17T09:35:25.884Z,1.60
2023-01-17T09:37:55.810Z,1.80
2023-01-17T09:40:25.944Z,2.20
2023-01-17T09:43:01.581Z,2.40
2023-01-17T09:45:58.215Z,2.50
2023-01-17T09:48:38.969Z,4.50
2023-01-17T09:51:17.203Z,4.40
2023-01-17T09:53:45.847Z,2.60
2023-01-17T09:56:29.676Z,1.60
2023-01-17T09:59:10.084Z,1.90
2023-01-17T10:02:06.461Z,1.30
2023-01-17T10:05:02.734Z,1.70
2023-01-17T10:07:57.935Z,1.60
2023-01-17T10:10:56.064Z,1.80
2023-01-17T10:13:40.736Z,1.50
2023-01-17T10:16:46.560Z,1.90
2023-01-17T10:19:41.172Z,2.50
2023-01-17T10:22:33.803Z,1.80
2023-01-17T10:25:33.925Z,1.60
2023-01-17T10:28:13.480Z,1.40
2023-01-17T10:30:51.483Z,1.40
2023-01-17T10:33:27.758Z,1.60
2023-01-17T10:36:03.928Z,1.80
2023-01-17T10:38:36.181Z,2.10
2023-01-17T10:41:26.458Z,1.70
2023-01-17T10:44:42.476Z,2.10
2023-01-17T10:47:10.666Z,1.90
2023-01-17T10:49:45.421Z,2.00
2023-01-17T10:52:27.208Z,3.10
2023-01-17T10:55:17.182Z,2.00
2023-01-17T10:57:48.778Z,2.50
2023-01-17T11:00:39.925Z,1.80
2023-01-17T11:03:10.982Z,2.00
2023-01-17T11:05:41.305Z,1.70
2023-01-17T11:08:14.665Z,2.00
2023-01-17T11:10:46.650Z,1.20
2023-01-17T11:13:24.564Z,1.60
2023-01-17T11:16:00.897Z,1.70
2023-01-17T11:18:33.455Z,2.00
2023-01-17T11:21:21.473Z,1.70
2023-01-17T11:23:53.826Z,2.10
2023-01-17T11:29:31.636Z,1.70
2023-01-17T11:32:30.229Z,1.70
2023-01-17T11:35:24.583Z,1.40
2023-01-17T11:38:06.562Z,1.20
2023-01-17T11:40:44.453Z,1.70
2023-01-17T11:43:12.960Z,1.70
2023-01-17T11:45:41.941Z,1.30
2023-01-17T11:48:13.005Z,1.60
2023-01-17T11:51:04.420Z,1.20
2023-01-17T11:53:39.681Z,1.20
2023-01-17T11:56:38.269Z,1.30
2023-01-17T11:59:29.795Z,1.10
2023-01-17T12:02:31.934Z,1.30
2023-01-17T12:05:28.274Z,1.20
2023-01-17T12:08:17.764Z,1.40
2023-01-17T12:10:46.123Z,1.40
2023-01-17T12:14:01.894Z,1.30
2023-01-17T12:16:38.903Z,1.20
2023-01-17T12:19:25.756Z,1.30
2023-01-17T12:22:29.777Z,1.10
2023-01-17T12:25:23.770Z,1.10
2023-01-17T12:28:23.014Z,1.10
2023-01-17T12:31:12.904Z,1.30
2023-01-17T12:33:51.828Z,1.30
2023-01-17T12:36:39.071Z,1.20
2023-01-17T12:39:11.989Z,1.80
2023-01-17T12:41:59.981Z,1.70
2023-01-17T12:44:41.596Z,2.50
2023-01-17T12:47:11.580Z,1.60
2023-01-17T12:49:48.680Z,1.30
2023-01-17T12:52:35.208Z,1.20
2023-01-17T12:55:10.734Z,1.70
2023-01-17T12:57:44.329Z,1.20
2023-01-17T13:00:25.736Z,1.10
2023-01-17T13:03:04.934Z,4.00
2023-01-17T13:05:38.489Z,1.40
2023-01-17T13:08:23.976Z,1.30
2023-01-17T13:10:56.026Z,6.20
2023-01-17T13:13:27.943Z,1.60
2023-01-17T13:16:02.758Z,1.10
2023-01-17T13:18:33.287Z,9.90
2023-01-17T13:21:23.891Z,2.70
2023-01-17T13:24:06.903Z,1.20
2023-01-17T13:26:51.924Z,1.60
2023-01-17T13:29:40.072Z,1.20
2023-01-17T13:32:27.757Z,4.30
2023-01-17T13:35:00.962Z,4.00
2023-01-17T13:38:17.433Z,2.70
2023-01-17T13:40:58.629Z,2.30
2023-01-17T13:43:31.337Z,0.90
2023-01-17T13:46:05.389Z,1.40
2023-01-17T13:48:37.869Z,1.60
2023-01-17T13:53:34.835Z,1.50
2023-01-17T13:56:32.614Z,1.60
2023-01-17T13:59:03.762Z,1.40
2023-01-17T14:01:32.116Z,1.60
2023-01-17T14:04:07.824Z,2.90
2023-01-17T14:06:36.245Z,2.10
2023-01-17T14:09:25.525Z,1.90
2023-01-17T14:12:04.972Z,1.50
2023-01-17T14:14:55.724Z,1.40
2023-01-17T14:17:25.860Z,1.60
2023-01-17T14:20:25.444Z,1.30
2023-01-17T14:23:00.844Z,1.50
2023-01-17T14:25:38.368Z,1.30
2023-01-17T14:28:22.235Z,0.90
2023-01-17T14:30:55.994Z,1.70
2023-01-17T14:33:37.266Z,1.40
2023-01-17T14:36:28.043Z,1.60
2023-01-17T14:38:56.964Z,1.30
2023-01-17T14:41:28.457Z,1.50
2023-01-17T14:44:00.167Z,1.80
2023-01-17T14:46:36.399Z,1.60
2023-01-17T14:49:08.661Z,1.90
2023-01-17T14:51:39.111Z,2.10
2023-01-17T14:54:21.346Z,2.10
2023-01-17T14:56:49.507Z,2.40
2023-01-17T14:59:22.250Z,2.20
2023-01-17T15:02:06.709Z,4.60
2023-01-17T15:04:39.904Z,1.90
2023-01-17T15:07:16.462Z,3.00
2023-01-17T15:09:45.305Z,2.60
2023-01-17T15:12:14.723Z,2.60
2023-01-17T15:14:46.036Z,2.40
2023-01-17T15:17:24.963Z,2.10
2023-01-17T15:20:00.345Z,2.90
2023-01-17T15:22:29.950Z,1.90
2023-01-17T15:25:00.047Z,2.00
2023-01-17T15:27:28.550Z,2.60
2023-01-17T15:30:01.916Z,2.80
2023-01-17T15:32:32.947Z,8.30
2023-01-17T15:35:03.126Z,8.20
2023-01-17T15:37:34.862Z,6.40
2023-01-17T15:40:06.703Z,4.20
2023-01-17T15:42:39.793Z,2.40
2023-01-17T15:45:15.672Z,5.10
2023-01-17T15:47:43.830Z,7.20
2023-01-17T15:50:25.669Z,9.10
2023-01-17T15:53:01.118Z,8.20
2023-01-17T15:55:33.807Z,6.80
2023-01-17T16:00:38.340Z,8.00
2023-01-17T16:03:20.309Z,7.90
2023-01-17T16:05:50.004Z,6.90
2023-01-17T16:08:38.667Z,4.80
2023-01-17T16:11:11.819Z,5.40
2023-01-17T16:13:43.510Z,9.10
2023-01-17T16:16:16.269Z,12.20
2023-01-17T16:21:21.419Z,7.90
2023-01-17T16:23:50.191Z,9.10
2023-01-17T16:26:18.557Z,13.40
2023-01-17T16:28:47.368Z,22.70
2023-01-17T16:31:17.062Z,13.20
2023-01-17T16:33:46.227Z,8.50
2023-01-17T16:36:16.689Z,5.20
2023-01-17T16:38:45.822Z,4.30
2023-01-17T16:41:14.066Z,2.30
2023-01-17T16:43:42.333Z,3.10
2023-01-17T16:46:12.955Z,3.60
2023-01-17T16:48:41.195Z,3.10
2023-01-17T16:51:09.474Z,3.60
2023-01-17T16:53:37.846Z,2.60
2023-01-17T16:56:12.205Z,2.80
2023-01-17T16:58:41.749Z,3.70
2023-01-17T17:01:21.395Z,3.90
2023-01-17T17:03:50.013Z,4.70
2023-01-17T17:06:18.622Z,3.90
2023-01-17T17:08:47.746Z,4.30
2023-01-17T17:11:18.654Z,4.30
2023-01-17T17:13:49.376Z,3.20
2023-01-17T17:16:26.755Z,2.80
2023-01-17T17:19:00.715Z,1.90
2023-01-17T17:21:30.821Z,1.40
2023-01-17T17:24:01.004Z,3.70
2023-01-17T17:26:36.772Z,3.60
2023-01-17T17:29:06.518Z,1.80
2023-01-17T17:31:34.587Z,3.10
2023-01-17T17:34:04.893Z,6.50
2023-01-17T17:36:34.628Z,4.00
2023-01-17T17:39:04.884Z,3.50
2023-01-17T17:41:35.711Z,2.90
2023-01-17T17:44:04.339Z,2.70
2023-01-17T17:46:33.987Z,1.90
2023-01-17T17:49:06.926Z,2.60
2023-01-17T17:51:37.836Z,3.20
2023-01-17T17:54:09.349Z,3.00
2023-01-17T17:56:38.632Z,2.90
2023-01-17T17:59:09.113Z,3.50
2023-01-17T18:01:41.123Z,5.20
2023-01-17T18:04:18.557Z,2.70
2023-01-17T18:06:49.415Z,4.70
2023-01-17T18:09:17.909Z,5.20
2023-01-17T18:11:45.965Z,3.70
2023-01-17T18:14:15.861Z,3.90
2023-01-17T18:16:45.105Z,4.60
2023-01-17T18:19:19.863Z,4.50
2023-01-17T18:21:50.464Z,7.50
2023-01-17T18:24:21.811Z,6.20
2023-01-17T18:26:52.892Z,6.00
2023-01-17T18:29:22.600Z,8.20
2023-01-17T18:31:51.915Z,5.10
2023-01-17T18:34:24.209Z,5.40
2023-01-17T18:36:53.737Z,6.00
2023-01-17T18:39:25.336Z,4.50
2023-01-17T18:41:54.422Z,4.30
2023-01-17T18:44:24.492Z,4.00
2023-01-17T18:46:55.211Z,6.90
2023-01-17T18:49:23.458Z,6.60
2023-01-17T18:51:51.877Z,8.70
2023-01-17T18:54:20.617Z,7.60
2023-01-17T18:56:49.303Z,3.60
2023-01-17T18:59:18.584Z,3.70
2023-01-17T19:01:47.624Z,3.40
2023-01-17T19:04:20.204Z,4.20
2023-01-17T19:06:48.509Z,4.90
2023-01-17T19:09:18.671Z,4.10
2023-01-17T19:11:47.683Z,8.80
2023-01-17T19:14:16.087Z,7.40
2023-01-17T19:16:45.085Z,6.30
2023-01-17T19:19:15.083Z,5.80
2023-01-17T19:21:43.310Z,5.90
2023-01-17T19:24:15.380Z,5.80
2023-01-17T19:26:44.560Z,6.60
2023-01-17T19:29:12.667Z,5.80
2023-01-17T19:31:43.409Z,6.30
2023-01-17T19:34:18.996Z,8.10
2023-01-17T19:36:47.793Z,6.50
2023-01-17T19:39:16.063Z,5.20
2023-01-17T19:41:48.502Z,4.40
2023-01-17T19:44:16.766Z,4.50
2023-01-17T19:46:46.212Z,6.80
2023-01-17T19:49:21.618Z,7.30
2023-01-17T19:51:50.329Z,4.30
2023-01-17T19:54:18.649Z,5.50
2023-01-17T19:56:46.976Z,6.40
2023-01-17T19:59:15.757Z,5.00
2023-01-17T20:01:44.014Z,8.20
2023-01-17T20:04:13.022Z,5.00
2023-01-17T20:06:41.370Z,2.80
2023-01-17T20:09:09.872Z,5.40
2023-01-17T20:11:39.067Z,6.00
2023-01-17T20:14:07.172Z,8.10
2023-01-17T20:16:38.001Z,5.50
2023-01-17T20:19:06.316Z,5.80
2023-01-17T20:21:38.133Z,4.80
2023-01-17T20:24:06.694Z,6.00
2023-01-17T20:26:35.722Z,3.60
2023-01-17T20:29:15.843Z,6.60
2023-01-17T20:31:45.266Z,3.60
2023-01-17T20:34:14.599Z,8.10
2023-01-17T20:36:45.893Z,7.00
2023-01-17T20:39:15.102Z,11.10
2023-01-17T20:41:46.332Z,7.40
2023-01-17T20:44:15.915Z,8.00
2023-01-17T20:46:44.629Z,3.50
2023-01-17T20:49:16.320Z,4.10
2023-01-17T20:51:45.681Z,7.40
2023-01-17T20:54:16.430Z,4.90
2023-01-17T20:56:47.442Z,6.00
2023-01-17T20:59:18.535Z,4.30
2023-01-17T21:01:48.275Z,3.30
2023-01-17T21:04:18.059Z,4.00
2023-01-17T21:06:46.245Z,4.00
2023-01-17T21:09:15.484Z,4.30
2023-01-17T21:11:43.751Z,4.20
2023-01-17T21:14:11.957Z,4.90
2023-01-17T21:16:40.931Z,4.10
2023-01-17T21:19:12.214Z,2.80
2023-01-17T21:21:44.025Z,3.10
2023-01-17T21:24:22.505Z,4.10
2023-01-17T21:26:54.452Z,3.20
2023-01-17T21:29:28.694Z,3.40
2023-01-17T21:32:02.770Z,2.90
2023-01-17T21:34:32.774Z,5.00
2023-01-17T21:37:03.423Z,4.60
2023-01-17T21:39:35.141Z,5.90
2023-01-17T21:42:05.855Z,4.40
2023-01-17T21:44:38.789Z,4.90
2023-01-17T21:47:07.107Z,5.60
2023-01-17T21:49:35.287Z,3.90
2023-01-17T21:52:04.724Z,7.50
2023-01-17T21:54:51.360Z,7.10
2023-01-17T21:57:40.756Z,7.50
2023-01-17T22:00:16.008Z,7.90
2023-01-17T22:02:46.354Z,6.90
2023-01-17T22:05:16.588Z,5.90
2023-01-17T22:08:05.482Z,5.60
2023-01-17T22:10:44.547Z,4.80
2023-01-17T22:13:19.950Z,8.70
2023-01-17T22:15:58.684Z,8.70
2023-01-17T22:18:28.066Z,6.10
2023-01-17T22:20:57.638Z,7.90
2023-01-17T22:23:25.944Z,11.90
2023-01-17T22:25:54.208Z,14.70
2023-01-17T22:28:22.559Z,7.90
2023-01-17T22:30:52.083Z,9.90
2023-01-17T22:33:23.280Z,10.20
2023-01-17T22:35:59.025Z,7.70
2023-01-17T22:38:27.285Z,10.00
2023-01-17T22:41:08.134Z,5.40
2023-01-17T22:43:40.612Z,4.10
2023-01-17T22:46:10.981Z,5.90
2023-01-17T22:48:42.576Z,5.50
2023-01-17T22:51:13.142Z,6.00
2023-01-17T22:53:44.367Z,8.00
2023-01-17T22:56:18.691Z,5.90
2023-01-17T22:58:48.939Z,3.30
2023-01-17T23:01:18.747Z,4.00
2023-01-17T23:03:52.490Z,6.10
2023-01-17T23:06:23.988Z,3.60
2023-01-17T23:08:55.655Z,3.10
2023-01-17T23:11:39.016Z,5.20
2023-01-17T23:14:17.599Z,5.00
2023-01-17T23:17:21.326Z,5.00
2023-01-17T23:20:01.755Z,4.50
2023-01-17T23:22:37.187Z,3.20
2023-01-17T23:25:20.099Z,3.40
2023-01-17T23:28:09.579Z,4.10
2023-01-17T23:30:48.186Z,2.80
2023-01-17T23:33:17.808Z,3.90
2023-01-17T23:36:00.979Z,4.10
2023-01-17T23:38:37.790Z,4.00
2023-01-17T23:41:29.321Z,4.60
2023-01-17T23:44:01.972Z,3.60
2023-01-17T23:46:37.585Z,2.70
2023-01-17T23:49:13.917Z,2.60
2023-01-17T23:51:53.291Z,3.70
2023-01-17T23:54:25.813Z,3.90
2023-01-17T23:56:56.378Z,4.10
2023-01-17T23:59:32.625Z,4.70
